Terminal Aerodrome Forecast
Issued by NWS

Home | Current Version | Previous Version | Text Only | Print | Product List | Glossary On
Versions: 1 2 3 4 5 6 7 8 9 10 11 12 13 14 15 16 17
000
FTUS45 KABQ 031254 AAB
TAFGUP
TAF AMD
KGUP 031254Z 0313/0412 VRB05KT P6SM SKC
      TEMPO 0313/0314 1/4SM FG VV002
     FM032000 28011KT P6SM FEW120
     FM040200 VRB05KT P6SM FEW120=

USA.gov is the U.S. government's official web portal to all federal, state and local government web resources and services.